sensor_id;sensor_type;location;lat;lon;timestamp;pressure;altitude;pressure_sealevel;temperature;humidity
52983;BME280;48698;45.736;13.926;2023-01-16T00:01:58;96621.94;;;8.83;100.00
52983;BME280;48698;45.736;13.926;2023-01-16T00:07:02;96518.00;;;8.37;100.00
52983;BME280;48698;45.736;13.926;2023-01-16T00:12:05;96588.19;;;8.87;100.00
52983;BME280;48698;45.736;13.926;2023-01-16T00:17:09;96462.41;;;8.23;100.00
52983;BME280;48698;45.736;13.926;2023-01-16T00:22:12;96563.88;;;8.80;100.00
52983;BME280;48698;45.736;13.926;2023-01-16T00:27:15;96553.97;;;8.83;100.00
52983;BME280;48698;45.736;13.926;2023-01-16T00:32:19;96490.59;;;8.52;100.00
52983;BME280;48698;45.736;13.926;2023-01-16T00:37:22;96558.50;;;8.96;100.00
52983;BME280;48698;45.736;13.926;2023-01-16T00:42:26;96511.41;;;8.87;100.00
52983;BME280;48698;45.736;13.926;2023-01-16T00:47:29;96496.84;;;8.65;100.00
52983;BME280;48698;45.736;13.926;2023-01-16T00:52:33;96415.25;;;8.15;100.00
52983;BME280;48698;45.736;13.926;2023-01-16T00:57:36;96405.16;;;8.08;100.00
52983;BME280;48698;45.736;13.926;2023-01-16T01:02:39;96535.31;;;8.85;100.00
52983;BME280;48698;45.736;13.926;2023-01-16T01:07:43;96448.56;;;8.34;100.00
52983;BME280;48698;45.736;13.926;2023-01-16T01:12:46;96501.22;;;8.66;100.00
52983;BME280;48698;45.736;13.926;2023-01-16T01:17:49;96379.78;;;8.05;100.00
52983;BME280;48698;45.736;13.926;2023-01-16T01:22:53;96401.56;;;8.09;100.00
52983;BME280;48698;45.736;13.926;2023-01-16T01:27:56;96522.00;;;8.58;100.00
52983;BME280;48698;45.736;13.926;2023-01-16T01:33:00;96523.97;;;8.41;100.00
52983;BME280;48698;45.736;13.926;2023-01-16T01:38:03;96519.56;;;7.50;100.00
52983;BME280;48698;45.736;13.926;2023-01-16T01:43:14;96491.22;;;7.38;100.00
52983;BME280;48698;45.736;13.926;2023-01-16T01:48:27;96519.69;;;7.49;100.00
52983;BME280;48698;45.736;13.926;2023-01-16T01:53:35;96505.63;;;7.17;100.00
52983;BME280;48698;45.736;13.926;2023-01-16T01:58:41;96517.31;;;6.64;100.00
52983;BME280;48698;45.736;13.926;2023-01-16T02:03:52;96497.56;;;5.89;100.00
52983;BME280;48698;45.736;13.926;2023-01-16T02:08:57;96475.03;;;5.30;100.00
52983;BME280;48698;45.736;13.926;2023-01-16T02:14:05;96513.91;;;4.88;100.00
52983;BME280;48698;45.736;13.926;2023-01-16T02:19:18;96445.94;;;4.41;100.00
52983;BME280;48698;45.736;13.926;2023-01-16T02:30:25;96523.03;;;4.42;100.00
52983;BME280;48698;45.736;13.926;2023-01-16T02:46:30;96458.16;;;4.24;100.00
52983;BME280;48698;45.736;13.926;2023-01-16T02:51:45;96490.13;;;4.33;100.00
52983;BME280;48698;45.736;13.926;2023-01-16T02:57:04;96471.75;;;4.33;100.00
52983;BME280;48698;45.736;13.926;2023-01-16T03:02:09;96448.56;;;4.23;100.00
52983;BME280;48698;45.736;13.926;2023-01-16T03:23:54;96451.47;;;3.78;100.00
52983;BME280;48698;45.736;13.926;2023-01-16T03:39:37;96433.09;;;3.78;100.00
52983;BME280;48698;45.736;13.926;2023-01-16T03:44:48;96415.47;;;3.80;100.00
52983;BME280;48698;45.736;13.926;2023-01-16T03:49:59;96284.16;;;3.02;100.00
52983;BME280;48698;45.736;13.926;2023-01-16T03:55:09;96415.63;;;3.77;100.00
52983;BME280;48698;45.736;13.926;2023-01-16T04:00:17;96301.94;;;2.95;100.00
52983;BME280;48698;45.736;13.926;2023-01-16T04:05:30;96399.34;;;3.48;100.00
52983;BME280;48698;45.736;13.926;2023-01-16T04:10:38;96342.16;;;3.36;100.00
52983;BME280;48698;45.736;13.926;2023-01-16T04:15:47;96371.13;;;3.53;100.00
52983;BME280;48698;45.736;13.926;2023-01-16T04:20:52;96355.53;;;3.50;100.00
52983;BME280;48698;45.736;13.926;2023-01-16T04:25:56;96424.78;;;3.87;100.00
52983;BME280;48698;45.736;13.926;2023-01-16T04:30:59;96392.84;;;3.77;100.00
52983;BME280;48698;45.736;13.926;2023-01-16T04:36:02;96257.31;;;2.97;100.00
52983;BME280;48698;45.736;13.926;2023-01-16T04:41:06;96348.84;;;3.43;100.00
52983;BME280;48698;45.736;13.926;2023-01-16T04:46:09;96251.38;;;2.92;100.00
52983;BME280;48698;45.736;13.926;2023-01-16T04:51:13;96315.00;;;3.17;100.00
52983;BME280;48698;45.736;13.926;2023-01-16T04:56:18;96349.34;;;3.51;100.00
52983;BME280;48698;45.736;13.926;2023-01-16T05:01:24;96322.72;;;3.40;100.00
52983;BME280;48698;45.736;13.926;2023-01-16T05:06:29;96324.53;;;3.38;100.00
52983;BME280;48698;45.736;13.926;2023-01-16T05:11:32;96274.16;;;3.11;100.00
52983;BME280;48698;45.736;13.926;2023-01-16T05:16:38;96323.47;;;3.62;100.00
52983;BME280;48698;45.736;13.926;2023-01-16T05:21:41;96308.38;;;3.68;100.00
52983;BME280;48698;45.736;13.926;2023-01-16T05:26:45;96291.53;;;3.72;100.00
52983;BME280;48698;45.736;13.926;2023-01-16T05:31:48;96211.94;;;3.34;100.00
52983;BME280;48698;45.736;13.926;2023-01-16T05:36:52;96220.63;;;3.54;100.00
52983;BME280;48698;45.736;13.926;2023-01-16T05:41:55;96094.44;;;2.84;100.00
52983;BME280;48698;45.736;13.926;2023-01-16T05:46:59;96173.06;;;3.60;100.00
52983;BME280;48698;45.736;13.926;2023-01-16T05:52:02;96225.16;;;4.24;100.00
52983;BME280;48698;45.736;13.926;2023-01-16T05:57:06;96185.97;;;3.84;100.00
52983;BME280;48698;45.736;13.926;2023-01-16T06:02:09;96081.84;;;3.11;100.00
52983;BME280;48698;45.736;13.926;2023-01-16T06:07:13;96198.59;;;3.76;100.00
52983;BME280;48698;45.736;13.926;2023-01-16T06:12:18;96191.22;;;3.65;100.00
52983;BME280;48698;45.736;13.926;2023-01-16T06:17:22;96198.59;;;3.76;100.00
52983;BME280;48698;45.736;13.926;2023-01-16T06:22:25;96168.84;;;3.75;100.00
52983;BME280;48698;45.736;13.926;2023-01-16T06:27:29;96043.06;;;3.18;100.00
52983;BME280;48698;45.736;13.926;2023-01-16T06:32:35;96091.50;;;3.46;100.00
52983;BME280;48698;45.736;13.926;2023-01-16T06:37:39;96153.34;;;3.71;100.00
52983;BME280;48698;45.736;13.926;2023-01-16T06:42:42;96119.47;;;3.10;100.00
52983;BME280;48698;45.736;13.926;2023-01-16T06:47:50;96024.06;;;2.38;100.00
52983;BME280;48698;45.736;13.926;2023-01-16T06:52:54;96155.81;;;2.99;100.00
52983;BME280;48698;45.736;13.926;2023-01-16T06:57:58;96116.91;;;2.90;100.00
52983;BME280;48698;45.736;13.926;2023-01-16T07:03:01;96055.50;;;2.56;100.00
52983;BME280;48698;45.736;13.926;2023-01-16T07:08:05;96041.25;;;2.43;100.00
52983;BME280;48698;45.736;13.926;2023-01-16T07:13:08;96090.66;;;2.71;100.00
52983;BME280;48698;45.736;13.926;2023-01-16T07:18:14;96170.72;;;3.17;100.00
52983;BME280;48698;45.736;13.926;2023-01-16T07:23:37;96055.97;;;2.46;100.00
52983;BME280;48698;45.736;13.926;2023-01-16T07:28:41;96031.47;;;2.28;100.00
52983;BME280;48698;45.736;13.926;2023-01-16T07:33:45;96192.91;;;3.29;100.00
52983;BME280;48698;45.736;13.926;2023-01-16T07:38:48;96087.69;;;2.79;100.00
52983;BME280;48698;45.736;13.926;2023-01-16T07:43:52;96139.03;;;3.03;100.00
52983;BME280;48698;45.736;13.926;2023-01-16T07:48:55;96154.63;;;3.06;100.00
52983;BME280;48698;45.736;13.926;2023-01-16T07:53:59;96038.06;;;2.37;100.00
52983;BME280;48698;45.736;13.926;2023-01-16T07:59:03;96141.53;;;2.86;100.00
52983;BME280;48698;45.736;13.926;2023-01-16T08:04:06;96077.03;;;2.44;100.00
52983;BME280;48698;45.736;13.926;2023-01-16T08:09:11;96165.09;;;3.06;100.00
52983;BME280;48698;45.736;13.926;2023-01-16T08:14:15;96126.56;;;2.69;100.00
52983;BME280;48698;45.736;13.926;2023-01-16T08:19:18;96126.22;;;2.58;100.00
52983;BME280;48698;45.736;13.926;2023-01-16T08:24:21;96125.50;;;2.54;100.00
52983;BME280;48698;45.736;13.926;2023-01-16T08:29:27;96087.91;;;2.35;100.00
52983;BME280;48698;45.736;13.926;2023-01-16T08:34:30;96046.41;;;2.06;100.00
52983;BME280;48698;45.736;13.926;2023-01-16T08:39:33;96039.66;;;2.00;100.00
52983;BME280;48698;45.736;13.926;2023-01-16T08:44:37;96002.25;;;1.78;100.00
52983;BME280;48698;45.736;13.926;2023-01-16T08:49:59;95967.78;;;1.69;100.00
52983;BME280;48698;45.736;13.926;2023-01-16T08:55:22;96105.03;;;2.63;100.00
52983;BME280;48698;45.736;13.926;2023-01-16T09:00:27;96101.97;;;2.53;100.00
52983;BME280;48698;45.736;13.926;2023-01-16T09:05:30;96126.78;;;2.65;100.00
52983;BME280;48698;45.736;13.926;2023-01-16T09:10:34;95997.91;;;1.97;100.00
52983;BME280;48698;45.736;13.926;2023-01-16T09:15:37;95977.44;;;1.67;100.00
52983;BME280;48698;45.736;13.926;2023-01-16T09:20:41;96088.97;;;2.31;100.00
52983;BME280;48698;45.736;13.926;2023-01-16T09:25:46;96088.13;;;2.49;100.00
52983;BME280;48698;45.736;13.926;2023-01-16T09:30:51;95951.34;;;1.85;100.00
52983;BME280;48698;45.736;13.926;2023-01-16T09:35:54;96067.69;;;2.57;100.00
52983;BME280;48698;45.736;13.926;2023-01-16T09:40:58;96074.22;;;2.86;100.00
52983;BME280;48698;45.736;13.926;2023-01-16T09:51:25;96029.44;;;2.72;100.00
52983;BME280;48698;45.736;13.926;2023-01-16T09:56:35;96042.34;;;2.95;100.00
52983;BME280;48698;45.736;13.926;2023-01-16T10:02:05;95996.22;;;2.73;100.00
52983;BME280;48698;45.736;13.926;2023-01-16T10:12:36;96032.72;;;3.15;100.00
52983;BME280;48698;45.736;13.926;2023-01-16T10:18:23;96018.66;;;3.16;100.00
52983;BME280;48698;45.736;13.926;2023-01-16T10:29:25;96017.53;;;3.38;100.00
52983;BME280;48698;45.736;13.926;2023-01-16T10:34:39;96008.09;;;3.17;100.00
52983;BME280;48698;45.736;13.926;2023-01-16T10:39:43;95920.78;;;2.79;100.00
52983;BME280;48698;45.736;13.926;2023-01-16T10:44:57;95949.44;;;3.01;100.00
52983;BME280;48698;45.736;13.926;2023-01-16T10:50:22;95990.03;;;3.11;100.00
52983;BME280;48698;45.736;13.926;2023-01-16T10:55:42;95925.09;;;2.80;100.00
52983;BME280;48698;45.736;13.926;2023-01-16T11:00:47;95956.09;;;3.08;100.00
52983;BME280;48698;45.736;13.926;2023-01-16T11:06:05;95969.69;;;3.16;100.00
52983;BME280;48698;45.736;13.926;2023-01-16T11:11:10;95950.59;;;3.31;100.00
52983;BME280;48698;45.736;13.926;2023-01-16T11:16:35;95953.63;;;3.22;100.00
52983;BME280;48698;45.736;13.926;2023-01-16T11:21:59;95851.31;;;2.52;100.00
52983;BME280;48698;45.736;13.926;2023-01-16T11:27:18;95952.16;;;3.17;100.00
52983;BME280;48698;45.736;13.926;2023-01-16T11:32:25;95936.00;;;2.90;100.00
52983;BME280;48698;45.736;13.926;2023-01-16T11:37:31;95912.69;;;2.84;100.00
52983;BME280;48698;45.736;13.926;2023-01-16T11:42:35;95926.91;;;2.97;100.00
52983;BME280;48698;45.736;13.926;2023-01-16T11:48:00;95903.09;;;3.19;100.00
52983;BME280;48698;45.736;13.926;2023-01-16T11:53:05;95856.97;;;3.32;100.00
52983;BME280;48698;45.736;13.926;2023-01-16T11:59:05;95877.75;;;3.69;100.00
52983;BME280;48698;45.736;13.926;2023-01-16T12:04:01;95836.91;;;3.81;100.00
52983;BME280;48698;45.736;13.926;2023-01-16T12:09:27;95874.06;;;4.22;100.00
52983;BME280;48698;45.736;13.926;2023-01-16T12:14:44;95850.06;;;3.96;100.00
52983;BME280;48698;45.736;13.926;2023-01-16T12:25:23;95816.03;;;4.10;100.00
52983;BME280;48698;45.736;13.926;2023-01-16T12:30:41;95821.06;;;3.98;100.00
52983;BME280;48698;45.736;13.926;2023-01-16T12:36:07;95816.84;;;3.95;100.00
52983;BME280;48698;45.736;13.926;2023-01-16T12:41:42;95758.84;;;3.51;100.00
52983;BME280;48698;45.736;13.926;2023-01-16T12:47:37;95796.84;;;4.08;100.00
52983;BME280;48698;45.736;13.926;2023-01-16T12:58:17;95801.59;;;4.02;100.00
52983;BME280;48698;45.736;13.926;2023-01-16T13:03:28;95739.56;;;3.68;100.00
52983;BME280;48698;45.736;13.926;2023-01-16T13:08:42;95767.81;;;4.27;100.00
52983;BME280;48698;45.736;13.926;2023-01-16T13:13:53;95745.84;;;4.28;100.00
52983;BME280;48698;45.736;13.926;2023-01-16T13:19:03;95755.13;;;4.49;100.00
52983;BME280;48698;45.736;13.926;2023-01-16T13:24:16;95734.00;;;4.51;100.00
52983;BME280;48698;45.736;13.926;2023-01-16T13:29:27;95670.81;;;4.38;100.00
52983;BME280;48698;45.736;13.926;2023-01-16T13:34:37;95725.56;;;4.76;100.00
52983;BME280;48698;45.736;13.926;2023-01-16T13:40:12;95739.91;;;5.00;100.00
52983;BME280;48698;45.736;13.926;2023-01-16T13:45:31;95644.44;;;4.40;100.00
52983;BME280;48698;45.736;13.926;2023-01-16T13:51:02;95668.00;;;4.41;100.00
52983;BME280;48698;45.736;13.926;2023-01-16T13:56:20;95709.88;;;4.44;100.00
52983;BME280;48698;45.736;13.926;2023-01-16T14:12:21;95630.47;;;4.39;100.00
52983;BME280;48698;45.736;13.926;2023-01-16T14:22:52;95583.06;;;3.97;100.00
52983;BME280;48698;45.736;13.926;2023-01-16T14:28:16;95710.28;;;4.82;100.00
52983;BME280;48698;45.736;13.926;2023-01-16T14:33:21;95660.16;;;4.55;100.00
52983;BME280;48698;45.736;13.926;2023-01-16T14:38:27;95705.97;;;4.95;100.00
52983;BME280;48698;45.736;13.926;2023-01-16T14:43:33;95587.66;;;4.37;100.00
52983;BME280;48698;45.736;13.926;2023-01-16T14:48:58;95701.22;;;5.30;100.00
52983;BME280;48698;45.736;13.926;2023-01-16T14:54:30;95510.69;;;4.35;100.00
52983;BME280;48698;45.736;13.926;2023-01-16T15:00:14;95655.44;;;5.47;100.00
52983;BME280;48698;45.736;13.926;2023-01-16T15:05:23;95537.38;;;4.72;100.00
52983;BME280;48698;45.736;13.926;2023-01-16T15:10:53;95637.59;;;5.24;100.00
52983;BME280;48698;45.736;13.926;2023-01-16T15:16:03;95618.34;;;5.23;100.00
52983;BME280;48698;45.736;13.926;2023-01-16T15:21:13;95629.78;;;5.22;100.00
52983;BME280;48698;45.736;13.926;2023-01-16T15:26:44;95628.28;;;4.90;100.00
52983;BME280;48698;45.736;13.926;2023-01-16T15:31:57;95582.81;;;4.59;100.00
52983;BME280;48698;45.736;13.926;2023-01-16T15:37:19;95592.88;;;4.81;100.00
52983;BME280;48698;45.736;13.926;2023-01-16T15:42:25;95563.66;;;4.43;100.00
52983;BME280;48698;45.736;13.926;2023-01-16T15:52:59;95530.72;;;3.94;100.00
52983;BME280;48698;45.736;13.926;2023-01-16T15:58:04;95450.34;;;3.47;100.00
52983;BME280;48698;45.736;13.926;2023-01-16T16:03:11;95632.66;;;4.61;100.00
52983;BME280;48698;45.736;13.926;2023-01-16T16:08:20;95505.75;;;3.87;100.00
52983;BME280;48698;45.736;13.926;2023-01-16T16:13:25;95435.94;;;3.54;100.00
52983;BME280;48698;45.736;13.926;2023-01-16T16:18:28;95451.19;;;3.62;100.00
52983;BME280;48698;45.736;13.926;2023-01-16T16:23:32;95603.25;;;4.40;100.00
52983;BME280;48698;45.736;13.926;2023-01-16T16:28:38;95606.63;;;4.42;100.00
52983;BME280;48698;45.736;13.926;2023-01-16T16:38:58;95565.50;;;4.27;100.00
52983;BME280;48698;45.736;13.926;2023-01-16T16:44:07;95601.00;;;4.48;100.00
52983;BME280;48698;45.736;13.926;2023-01-16T16:54:27;95591.78;;;4.41;100.00
52983;BME280;48698;45.736;13.926;2023-01-16T16:59:31;95564.25;;;4.18;100.00
52983;BME280;48698;45.736;13.926;2023-01-16T17:04:36;95580.97;;;4.32;100.00
52983;BME280;48698;45.736;13.926;2023-01-16T17:09:39;95533.56;;;4.19;100.00
52983;BME280;48698;45.736;13.926;2023-01-16T17:14:43;95467.88;;;3.91;100.00
52983;BME280;48698;45.736;13.926;2023-01-16T17:19:49;95535.84;;;4.39;100.00
52983;BME280;48698;45.736;13.926;2023-01-16T17:24:53;95518.78;;;4.32;100.00
52983;BME280;48698;45.736;13.926;2023-01-16T17:29:57;95381.63;;;3.55;100.00
52983;BME280;48698;45.736;13.926;2023-01-16T17:35:01;95461.88;;;4.03;100.00
52983;BME280;48698;45.736;13.926;2023-01-16T17:40:05;95506.13;;;4.67;100.00
52983;BME280;48698;45.736;13.926;2023-01-16T17:45:24;95437.06;;;4.78;100.00
52983;BME280;48698;45.736;13.926;2023-01-16T17:50:48;95418.66;;;4.78;100.00
52983;BME280;48698;45.736;13.926;2023-01-16T17:55:54;95416.16;;;4.76;100.00
52983;BME280;48698;45.736;13.926;2023-01-16T18:01:03;95370.63;;;4.61;100.00
52983;BME280;48698;45.736;13.926;2023-01-16T18:06:09;95335.72;;;4.59;100.00
52983;BME280;48698;45.736;13.926;2023-01-16T18:11:12;95365.72;;;4.84;100.00
52983;BME280;48698;45.736;13.926;2023-01-16T18:16:35;95435.53;;;5.29;100.00
52983;BME280;48698;45.736;13.926;2023-01-16T18:21:57;95447.84;;;5.28;100.00
52983;BME280;48698;45.736;13.926;2023-01-16T18:27:06;95373.03;;;4.79;100.00
52983;BME280;48698;45.736;13.926;2023-01-16T18:32:11;95434.72;;;5.14;100.00
52983;BME280;48698;45.736;13.926;2023-01-16T18:37:35;95424.47;;;4.97;100.00
52983;BME280;48698;45.736;13.926;2023-01-16T18:42:39;95358.63;;;4.31;100.00
52983;BME280;48698;45.736;13.926;2023-01-16T18:48:05;95455.00;;;4.71;100.00
52983;BME280;48698;45.736;13.926;2023-01-16T18:53:35;95510.97;;;3.27;100.00
52983;BME280;48698;45.736;13.926;2023-01-16T18:58:58;95478.56;;;2.97;100.00
52983;BME280;48698;45.736;13.926;2023-01-16T19:04:20;95461.25;;;2.94;100.00
52983;BME280;48698;45.736;13.926;2023-01-16T19:09:24;95444.66;;;3.09;100.00
52983;BME280;48698;45.736;13.926;2023-01-16T19:14:28;95436.13;;;3.36;100.00
52983;BME280;48698;45.736;13.926;2023-01-16T19:19:32;95335.25;;;2.82;100.00
52983;BME280;48698;45.736;13.926;2023-01-16T19:24:36;95394.59;;;3.28;100.00
52983;BME280;48698;45.736;13.926;2023-01-16T19:29:40;95413.19;;;3.39;100.00
52983;BME280;48698;45.736;13.926;2023-01-16T19:34:43;95294.28;;;2.81;100.00
52983;BME280;48698;45.736;13.926;2023-01-16T19:39:47;95409.84;;;3.51;100.00
52983;BME280;48698;45.736;13.926;2023-01-16T19:44:51;95378.47;;;3.50;100.00
52983;BME280;48698;45.736;13.926;2023-01-16T19:50:13;95359.25;;;3.20;100.00
52983;BME280;48698;45.736;13.926;2023-01-16T19:55:16;95347.19;;;3.17;100.00
52983;BME280;48698;45.736;13.926;2023-01-16T20:00:21;95300.00;;;2.87;100.00
52983;BME280;48698;45.736;13.926;2023-01-16T20:05:25;95397.41;;;3.69;100.00
52983;BME280;48698;45.736;13.926;2023-01-16T20:10:28;95350.69;;;3.46;100.00
52983;BME280;48698;45.736;13.926;2023-01-16T20:15:32;95292.81;;;3.05;100.00
52983;BME280;48698;45.736;13.926;2023-01-16T20:20:35;95304.25;;;3.04;100.00
52983;BME280;48698;45.736;13.926;2023-01-16T20:25:39;95346.84;;;3.37;100.00
52983;BME280;48698;45.736;13.926;2023-01-16T20:30:52;95338.22;;;3.35;100.00
52983;BME280;48698;45.736;13.926;2023-01-16T20:36:04;95337.09;;;3.39;100.00
52983;BME280;48698;45.736;13.926;2023-01-16T20:41:20;95312.78;;;3.07;100.00
52983;BME280;48698;45.736;13.926;2023-01-16T20:46:42;95321.66;;;3.05;100.00
52983;BME280;48698;45.736;13.926;2023-01-16T20:51:46;95309.09;;;2.66;100.00
52983;BME280;48698;45.736;13.926;2023-01-16T20:56:52;95257.47;;;2.07;100.00
52983;BME280;48698;45.736;13.926;2023-01-16T21:01:55;95263.38;;;1.95;100.00
52983;BME280;48698;45.736;13.926;2023-01-16T21:07:02;95292.75;;;2.00;100.00
52983;BME280;48698;45.736;13.926;2023-01-16T21:12:07;95314.59;;;1.99;100.00
52983;BME280;48698;45.736;13.926;2023-01-16T21:17:30;95286.69;;;1.35;100.00
52983;BME280;48698;45.736;13.926;2023-01-16T21:22:52;95324.78;;;1.39;100.00
52983;BME280;48698;45.736;13.926;2023-01-16T21:27:57;95287.19;;;1.42;100.00
52983;BME280;48698;45.736;13.926;2023-01-16T21:33:07;95264.66;;;1.39;100.00
52983;BME280;48698;45.736;13.926;2023-01-16T21:38:13;95303.03;;;1.72;100.00
52983;BME280;48698;45.736;13.926;2023-01-16T21:43:20;95316.94;;;1.39;100.00
52983;BME280;48698;45.736;13.926;2023-01-16T21:48:43;95291.91;;;1.35;100.00
52983;BME280;48698;45.736;13.926;2023-01-16T21:53:47;95288.88;;;1.43;100.00
52983;BME280;48698;45.736;13.926;2023-01-16T21:58:52;95345.41;;;1.45;100.00
52983;BME280;48698;45.736;13.926;2023-01-16T22:03:59;95229.22;;;1.01;100.00
52983;BME280;48698;45.736;13.926;2023-01-16T22:09:03;95339.44;;;1.92;100.00
52983;BME280;48698;45.736;13.926;2023-01-16T22:14:09;95330.81;;;2.05;100.00
52983;BME280;48698;45.736;13.926;2023-01-16T22:19:31;95335.47;;;1.85;100.00
52983;BME280;48698;45.736;13.926;2023-01-16T22:24:42;95319.47;;;1.58;100.00
52983;BME280;48698;45.736;13.926;2023-01-16T22:29:52;95296.56;;;1.79;100.00
52983;BME280;48698;45.736;13.926;2023-01-16T22:34:59;95323.81;;;1.90;100.00
52983;BME280;48698;45.736;13.926;2023-01-16T22:40:04;95301.63;;;1.82;100.00
52983;BME280;48698;45.736;13.926;2023-01-16T22:45:10;95319.72;;;2.02;100.00
52983;BME280;48698;45.736;13.926;2023-01-16T22:50:33;95311.06;;;2.16;100.00
52983;BME280;48698;45.736;13.926;2023-01-16T22:55:36;95292.75;;;2.00;100.00
52983;BME280;48698;45.736;13.926;2023-01-16T23:00:40;95251.03;;;1.97;100.00
52983;BME280;48698;45.736;13.926;2023-01-16T23:05:43;95306.09;;;2.27;100.00
52983;BME280;48698;45.736;13.926;2023-01-16T23:11:04;95316.66;;;2.25;100.00
52983;BME280;48698;45.736;13.926;2023-01-16T23:16:07;95273.09;;;2.08;100.00
52983;BME280;48698;45.736;13.926;2023-01-16T23:21:11;95322.47;;;2.46;100.00
52983;BME280;48698;45.736;13.926;2023-01-16T23:26:15;95335.88;;;2.55;100.00
52983;BME280;48698;45.736;13.926;2023-01-16T23:31:20;95325.59;;;2.52;100.00
52983;BME280;48698;45.736;13.926;2023-01-16T23:36:26;95330.72;;;2.70;100.00
52983;BME280;48698;45.736;13.926;2023-01-16T23:41:30;95339.97;;;2.61;100.00
52983;BME280;48698;45.736;13.926;2023-01-16T23:46:52;95243.09;;;1.83;100.00
52983;BME280;48698;45.736;13.926;2023-01-16T23:51:55;95321.13;;;2.23;100.00
52983;BME280;48698;45.736;13.926;2023-01-16T23:57:00;95355.91;;;2.56;100.00
